Time;durP1;ratioP1;P1;durP2;ratioP2;P2;SDS_P1;SDS_P2;PMS_P1;PMS_P2;Temp;Humidity;BMP_temperature;BMP_pressure;BME280_temperature;BME280_humidity;BME280_pressure;Samples;Min_cycle;Max_cycle;Signal;HPM_P1;HPM_P2
2022/05/19 00:01:55;;;;;;;6.85;3.03;;;;;;;9.72;54.98;101266.59;5034734;28;20028;-77
2022/05/19 00:04:21;;;;;;;7.47;3.45;;;;;;;9.69;55.50;101262.59;5036390;28;20037;-77
2022/05/19 00:06:47;;;;;;;6.10;2.97;;;;;;;9.69;55.46;101268.28;5018374;28;20037;-77
2022/05/19 00:09:13;;;;;;;5.80;3.00;;;;;;;9.67;55.20;101265.06;5034668;28;20033;-78
2022/05/19 00:11:40;;;;;;;6.63;2.80;;;;;;;9.68;55.43;101263.84;5017787;28;20029;-77
2022/05/19 00:14:06;;;;;;;7.30;3.50;;;;;;;9.70;55.45;101264.19;5001045;28;20493;-77
2022/05/19 00:16:33;;;;;;;8.40;3.35;;;;;;;9.68;55.35;101258.16;5034156;28;20053;-78
2022/05/19 00:19:14;;;;;;;7.20;2.83;;;;;;;9.69;55.53;101262.59;5017312;28;20029;-78
2022/05/19 00:21:40;;;;;;;6.80;2.90;;;;;;;9.69;54.51;101261.78;5035221;28;20021;-77
2022/05/19 00:24:06;;;;;;;7.57;3.30;;;;;;;9.68;55.00;101260.19;5018413;28;20084;-77
2022/05/19 00:26:32;;;;;;;4.82;3.00;;;;;;;9.65;54.54;101256.22;5022254;28;20080;-78
2022/05/19 00:29:00;;;;;;;6.63;2.97;;;;;;;9.65;54.80;101252.56;5022641;28;20498;-78
2022/05/19 00:31:26;;;;;;;6.72;3.38;;;;;;;9.61;55.69;101263.25;5035589;28;20060;-77
2022/05/19 00:33:53;;;;;;;5.63;2.53;;;;;;;9.55;55.66;101248.78;5017739;28;20029;-77
2022/05/19 00:36:20;;;;;;;7.57;3.78;;;;;;;9.58;55.58;101258.44;5035084;28;20025;-78
2022/05/19 00:38:50;;;;;;;4.78;2.90;;;;;;;9.52;55.11;101250.47;5033931;28;20025;-78
2022/05/19 00:41:17;;;;;;;6.85;3.53;;;;;;;9.50;55.63;101252.16;5016562;28;20482;-78
2022/05/19 00:43:47;;;;;;;8.00;2.92;;;;;;;9.46;56.34;101254.31;5000478;28;20040;-78
2022/05/19 00:46:34;;;;;;;5.03;3.08;;;;;;;9.39;56.80;101252.47;5016033;28;20033;-77
2022/05/19 00:49:04;;;;;;;6.13;3.10;;;;;;;9.34;57.28;101255.84;5033259;28;20029;-77
2022/05/19 00:51:43;;;;;;;5.38;3.97;;;;;;;9.25;57.61;101249.19;5016917;28;20394;-77
2022/05/19 00:54:13;;;;;;;6.43;3.53;;;;;;;9.25;57.09;101252.03;5033095;28;20029;-78
2022/05/19 00:57:01;;;;;;;7.85;4.55;;;;;;;9.21;57.23;101249.31;5033480;28;20052;-77
2022/05/19 00:59:30;;;;;;;5.85;4.30;;;;;;;9.14;57.73;101240.94;5033381;28;20025;-77
2022/05/19 01:01:56;;;;;;;6.07;3.60;;;;;;;9.05;57.72;101237.94;5016632;28;20458;-77
2022/05/19 01:04:51;;;;;;;8.00;4.03;;;;;;;9.16;57.22;101247.00;5016515;28;20147;-78
2022/05/19 01:07:27;;;;;;;4.22;3.42;;;;;;;9.16;57.91;101238.47;5030355;28;20037;-78
2022/05/19 01:10:05;;;;;;;6.97;3.60;;;;;;;9.16;57.00;101247.00;5033159;28;20107;-79
2022/05/19 01:12:40;;;;;;;11.40;4.20;;;;;;;9.17;57.95;101244.97;5034148;28;20383;-79
2022/05/19 01:15:07;;;;;;;5.82;4.03;;;;;;;9.11;58.21;101241.84;5016296;28;20487;-78
2022/05/19 01:17:34;;;;;;;6.30;4.15;;;;;;;8.99;57.90;101237.69;5032767;28;20490;-78
2022/05/19 01:20:25;;;;;;;6.38;3.60;;;;;;;9.02;58.74;101241.69;5016622;28;20173;-78
2022/05/19 01:23:29;;;;;;;7.97;3.97;;;;;;;9.03;58.48;101238.38;5026784;28;20041;-78
2022/05/19 01:26:13;;;;;;;8.23;3.72;;;;;;;9.05;58.39;101241.59;5033179;28;20474;-79
2022/05/19 01:28:41;;;;;;;8.40;3.85;;;;;;;9.00;58.37;101242.13;5042142;28;20128;-79
2022/05/19 01:31:26;;;;;;;5.30;3.35;;;;;;;9.01;58.90;101240.09;5073267;28;20032;-79
2022/05/19 01:33:53;;;;;;;4.80;3.20;;;;;;;8.98;58.55;101241.75;5053053;28;20068;-79
2022/05/19 01:36:19;;;;;;;5.40;3.53;;;;;;;8.95;58.93;101241.88;5056177;28;20368;-78
2022/05/19 01:38:45;;;;;;;5.60;3.03;;;;;;;8.91;58.78;101241.16;5039099;28;20505;-78
2022/05/19 01:41:13;;;;;;;7.47;4.00;;;;;;;8.90;59.37;101246.03;5055670;28;20081;-79
2022/05/19 01:44:12;;;;;;;5.35;3.50;;;;;;;8.86;59.79;101248.19;5055654;28;20042;-79
2022/05/19 01:47:22;;;;;;;8.88;4.15;;;;;;;8.84;59.59;101250.66;4992080;28;20050;-79
2022/05/19 01:50:20;;;;;;;6.22;3.70;;;;;;;8.81;59.63;101245.06;5054644;28;20032;-79
2022/05/19 01:53:25;;;;;;;8.30;3.75;;;;;;;8.80;60.72;101246.31;5071264;28;20045;-79
2022/05/19 01:56:14;;;;;;;5.47;2.97;;;;;;;8.77;60.91;101248.00;5055560;28;20036;-79
2022/05/19 01:58:49;;;;;;;6.88;3.42;;;;;;;8.73;60.33;101247.31;5055456;28;20480;-78
2022/05/19 02:01:18;;;;;;;7.70;3.55;;;;;;;8.71;61.44;101252.63;5073534;28;20040;-79
2022/05/19 02:03:52;;;;;;;7.68;3.38;;;;;;;8.68;60.87;101247.84;5022615;28;20062;-80
2022/05/19 02:06:21;;;;;;;7.57;3.33;;;;;;;8.66;60.85;101248.25;5055794;28;20499;-79
2022/05/19 02:08:51;;;;;;;5.55;3.38;;;;;;;8.62;61.48;101253.25;5055728;28;20028;-80
2022/05/19 02:11:32;;;;;;;5.05;3.10;;;;;;;8.59;61.04;101253.28;5055956;28;20107;-79
2022/05/19 02:14:03;;;;;;;6.32;3.75;;;;;;;8.48;61.12;101238.59;5045181;28;20037;-79
2022/05/19 02:16:49;;;;;;;6.13;3.40;;;;;;;8.50;61.96;101253.13;5035198;28;20045;-79
2022/05/19 02:19:18;;;;;;;6.05;3.25;;;;;;;8.30;62.26;101224.78;5072487;28;20036;-79
2022/05/19 02:21:58;;;;;;;6.15;4.57;;;;;;;8.34;63.37;101241.75;5055711;28;20082;-79
2022/05/19 02:24:26;;;;;;;8.65;5.40;;;;;;;8.28;63.72;101243.47;5055777;28;20060;-78
2022/05/19 02:26:51;;;;;;;8.55;5.75;;;;;;;8.21;63.55;101244.44;5055555;28;20025;-77
2022/05/19 02:29:22;;;;;;;7.82;4.32;;;;;;;8.21;63.55;101245.22;5042423;28;20099;-79
2022/05/19 02:31:49;;;;;;;7.75;3.95;;;;;;;8.23;63.91;101242.78;5031938;28;20025;-79
2022/05/19 02:34:15;;;;;;;6.72;3.92;;;;;;;8.12;64.76;101236.53;5033379;28;20112;-80
2022/05/19 02:36:45;;;;;;;7.93;4.82;;;;;;;8.11;64.93;101236.97;5033020;28;20038;-80
2022/05/19 02:39:11;;;;;;;6.75;4.75;;;;;;;8.09;65.06;101242.28;4999304;28;20060;-80
2022/05/19 02:41:38;;;;;;;9.45;5.07;;;;;;;7.99;65.38;101224.22;5015800;28;20064;-78
2022/05/19 02:44:04;;;;;;;9.18;5.50;;;;;;;8.00;66.00;101230.72;5035385;28;20095;-80
2022/05/19 02:46:30;;;;;;;9.25;5.13;;;;;;;7.87;67.83;101241.94;5035681;28;20025;-79
2022/05/19 02:48:59;;;;;;;9.57;5.07;;;;;;;7.86;68.41;101246.00;5035785;28;20080;-79
2022/05/19 02:51:25;;;;;;;10.30;5.03;;;;;;;7.80;68.51;101228.69;5019506;28;20041;-80
2022/05/19 02:53:54;;;;;;;6.15;4.55;;;;;;;7.85;68.26;101238.72;5036921;28;20057;-79
2022/05/19 02:56:20;;;;;;;8.60;4.53;;;;;;;7.71;69.76;101222.81;5035742;28;20029;-80
2022/05/19 02:58:47;;;;;;;8.15;3.97;;;;;;;7.77;69.76;101232.41;5035838;28;20101;-80
2022/05/19 03:01:15;;;;;;;6.35;3.88;;;;;;;7.74;69.97;101238.97;5035077;28;20037;-81
2022/05/19 03:03:40;;;;;;;8.80;4.28;;;;;;;7.68;70.86;101226.53;5019061;28;20025;-80
2022/05/19 03:06:07;;;;;;;8.35;3.78;;;;;;;7.71;70.44;101225.66;5035471;28;20037;-78
2022/05/19 03:08:32;;;;;;;8.77;4.68;;;;;;;7.70;71.19;101221.22;5035092;28;20037;-80
2022/05/19 03:11:01;;;;;;;8.93;3.58;;;;;;;7.66;70.65;101217.66;5036630;28;20025;-80
2022/05/19 03:13:26;;;;;;;7.55;3.88;;;;;;;7.66;71.31;101220.50;5035305;28;20029;-80
2022/05/19 03:15:53;;;;;;;5.60;3.60;;;;;;;7.75;70.80;101220.69;5007484;28;20047;-79
2022/05/19 03:18:19;;;;;;;8.02;3.63;;;;;;;7.73;70.82;101220.34;5035099;28;20017;-80
2022/05/19 03:20:46;;;;;;;4.88;3.28;;;;;;;7.77;70.67;101215.41;5036445;28;20037;-80
2022/05/19 03:23:16;;;;;;;7.18;3.90;;;;;;;7.84;71.15;101225.81;5036281;28;20029;-80
2022/05/19 03:25:43;;;;;;;11.80;4.18;;;;;;;7.89;70.60;101218.81;5018618;28;20033;-80
2022/05/19 03:28:13;;;;;;;5.93;3.55;;;;;;;8.00;69.50;101223.00;5034757;28;20543;-78
2022/05/19 03:30:40;;;;;;;5.13;3.53;;;;;;;8.00;69.70;101217.31;5054861;28;20103;-80
2022/05/19 03:33:06;;;;;;;6.88;3.15;;;;;;;8.02;69.64;101225.41;5055984;28;20035;-79
2022/05/19 03:35:34;;;;;;;5.43;3.30;;;;;;;8.05;69.93;101211.13;5056153;28;20025;-79
2022/05/19 03:38:01;;;;;;;5.97;3.45;;;;;;;8.07;69.34;101210.72;5054706;28;20051;-79
2022/05/19 03:40:27;;;;;;;5.88;2.78;;;;;;;8.11;69.88;101212.22;5037785;28;20091;-79
2022/05/19 03:42:52;;;;;;;5.45;3.03;;;;;;;8.19;69.15;101216.50;5037701;28;20036;-79
2022/05/19 03:45:21;;;;;;;6.13;3.35;;;;;;;8.32;68.75;101227.19;5055342;28;20482;-78
2022/05/19 03:47:47;;;;;;;7.10;4.22;;;;;;;8.37;68.64;101221.78;5056124;28;20072;-78
2022/05/19 03:50:14;;;;;;;8.50;3.40;;;;;;;8.41;68.69;101208.31;5054503;28;20021;-78
2022/05/19 03:52:40;;;;;;;5.70;3.10;;;;;;;8.48;68.48;101215.88;5055924;28;20028;-78
2022/05/19 03:55:07;;;;;;;5.40;3.40;;;;;;;8.57;67.95;101216.84;5053956;28;20028;-78
2022/05/19 03:57:35;;;;;;;8.85;3.80;;;;;;;8.58;68.12;101212.75;5055416;28;20021;-78
2022/05/19 04:00:07;;;;;;;5.95;3.13;;;;;;;8.63;67.91;101215.06;5056591;28;20036;-79
2022/05/19 04:02:32;;;;;;;;;;;;;;;8.68;67.72;101207.28;5042579;28;20033;-78
2022/05/19 04:04:57;;;;;;;5.03;3.13;;;;;;;8.78;67.21;101203.34;5056489;28;19932;-79
2022/05/19 04:07:23;;;;;;;3.50;2.70;;;;;;;8.89;67.10;101206.69;5056054;28;20051;-79
2022/05/19 04:09:50;;;;;;;6.18;2.92;;;;;;;8.97;66.29;101205.28;5054169;28;20100;-79
2022/05/19 04:12:20;;;;;;;5.35;3.08;;;;;;;9.03;66.55;101197.81;5037480;28;20025;-79
2022/05/19 04:14:47;;;;;;;7.40;3.58;;;;;;;9.07;66.66;101202.16;5037699;28;20037;-80
2022/05/19 04:17:14;;;;;;;5.65;3.40;;;;;;;9.04;66.57;101207.94;5060934;28;20056;-79
2022/05/19 04:19:40;;;;;;;4.57;3.17;;;;;;;9.18;66.14;101215.28;5042889;28;20494;-79
2022/05/19 04:22:05;;;;;;;5.47;3.15;;;;;;;9.23;66.10;101206.19;5037520;28;20032;-79
2022/05/19 04:24:31;;;;;;;5.93;3.67;;;;;;;9.32;65.91;101218.56;5020109;28;20422;-79
2022/05/19 04:26:56;;;;;;;4.60;3.45;;;;;;;9.40;65.62;101214.25;5039369;28;20029;-79
2022/05/19 04:29:23;;;;;;;8.48;3.15;;;;;;;9.44;65.39;101208.47;5054047;28;20053;-76
2022/05/19 04:31:49;;;;;;;5.07;3.15;;;;;;;9.58;65.33;101210.88;5075641;28;20027;-77
2022/05/19 04:34:14;;;;;;;6.68;3.28;;;;;;;9.72;65.56;101206.84;5057032;28;20119;-78
2022/05/19 04:36:40;;;;;;;3.72;2.90;;;;;;;9.88;64.19;101204.72;5075644;28;20028;-77
2022/05/19 04:39:07;;;;;;;5.82;3.85;;;;;;;10.09;63.90;101211.81;5041663;28;20021;-78
2022/05/19 04:41:32;;;;;;;8.70;3.15;;;;;;;10.21;63.53;101213.88;5054626;28;20061;-77
2022/05/19 04:43:59;;;;;;;5.88;3.03;;;;;;;10.29;62.26;101208.78;5038156;28;20037;-79
2022/05/19 04:46:25;;;;;;;6.40;3.35;;;;;;;10.41;62.63;101212.91;5041406;28;20036;-77
2022/05/19 04:48:50;;;;;;;5.22;3.33;;;;;;;10.50;61.81;101213.00;5074919;28;20056;-77
2022/05/19 04:51:20;;;;;;;8.43;3.63;;;;;;;10.61;61.85;101216.28;5076762;28;20445;-78
2022/05/19 04:53:45;;;;;;;3.80;2.83;;;;;;;10.62;62.02;101210.13;5027809;28;20126;-79
2022/05/19 04:56:12;;;;;;;8.80;4.18;;;;;;;10.78;61.01;101200.66;5059839;28;20462;-79
2022/05/19 04:58:39;;;;;;;6.20;3.17;;;;;;;10.86;61.04;101207.69;5075762;28;20020;-80
2022/05/19 05:01:05;;;;;;;15.20;2.80;;;;;;;10.95;60.13;101209.88;5063676;28;20501;-82
2022/05/19 05:03:31;;;;;;;6.63;3.15;;;;;;;11.01;60.12;101211.66;5043102;28;20016;-80
2022/05/19 05:05:59;;;;;;;7.35;3.03;;;;;;;11.10;59.81;101213.81;5059562;28;20023;-80
2022/05/19 05:08:25;;;;;;;5.25;2.45;;;;;;;11.22;59.70;101210.13;5076421;28;20025;-79
2022/05/19 05:10:52;;;;;;;5.57;2.97;;;;;;;11.36;59.18;101215.31;5056433;28;20103;-81
2022/05/19 05:13:18;;;;;;;3.35;2.70;;;;;;;11.49;58.77;101220.97;5073962;28;20194;-78
2022/05/19 05:15:47;;;;;;;7.20;3.75;;;;;;;11.65;58.70;101215.88;5037042;28;20077;-77
2022/05/19 05:18:15;;;;;;;4.10;3.05;;;;;;;11.76;58.73;101218.34;5052450;28;20041;-77
2022/05/19 05:20:42;;;;;;;3.05;2.55;;;;;;;11.80;58.25;101219.00;5036191;28;20474;-76
2022/05/19 05:23:09;;;;;;;6.10;3.08;;;;;;;11.90;58.15;101220.66;5035881;28;20381;-83
2022/05/19 05:25:36;;;;;;;5.60;2.75;;;;;;;11.99;57.43;101220.72;5039901;28;20115;-80
2022/05/19 05:28:03;;;;;;;7.72;2.70;;;;;;;12.10;56.95;101223.97;5064029;28;20065;-86
2022/05/19 05:30:30;;;;;;;4.32;2.28;;;;;;;12.23;57.19;101223.88;5071669;28;20393;-76
2022/05/19 05:33:08;;;;;;;4.03;2.90;;;;;;;12.35;56.53;101225.03;5038835;28;20107;-78
2022/05/19 05:35:35;;;;;;;5.97;2.72;;;;;;;12.50;56.03;101228.91;5038860;28;20028;-75
2022/05/19 05:38:05;;;;;;;7.93;2.72;;;;;;;12.53;56.15;101217.34;5055281;28;20048;-77
2022/05/19 05:40:33;;;;;;;6.93;3.00;;;;;;;12.77;55.79;101225.38;5055923;28;20103;-76
2022/05/19 05:43:24;;;;;;;4.00;2.63;;;;;;;12.92;55.32;101223.50;5073705;28;20404;-76
2022/05/19 05:45:52;;;;;;;6.28;2.92;;;;;;;13.07;55.01;101229.41;5069626;28;20040;-76
2022/05/19 05:48:19;;;;;;;3.88;2.03;;;;;;;13.18;54.87;101221.97;5074414;28;20052;-74
2022/05/19 05:50:46;;;;;;;2.80;1.77;;;;;;;13.37;54.25;101215.00;5055625;28;20036;-77
2022/05/19 05:53:12;;;;;;;15.40;3.28;;;;;;;13.60;53.67;101227.91;5055528;28;20024;-75
2022/05/19 05:55:40;;;;;;;9.13;2.70;;;;;;;13.78;53.23;101219.28;5073267;28;20428;-75
2022/05/19 05:58:10;;;;;;;3.55;1.90;;;;;;;13.93;52.97;101222.28;5072993;28;20501;-75
2022/05/19 06:00:38;;;;;;;6.13;2.30;;;;;;;14.13;52.81;101227.50;5054651;28;20091;-75
2022/05/19 06:03:04;;;;;;;3.63;1.92;;;;;;;14.32;52.34;101219.63;5054081;28;20040;-77
2022/05/19 06:05:37;;;;;;;3.20;1.88;;;;;;;14.55;51.94;101222.59;5058346;28;20021;-75
2022/05/19 06:08:06;;;;;;;6.88;2.30;;;;;;;14.74;50.89;101213.94;5035166;28;20021;-75
2022/05/19 06:10:32;;;;;;;4.43;1.92;;;;;;;14.94;50.62;101203.47;5032480;28;20163;-77
2022/05/19 06:12:57;;;;;;;3.72;2.15;;;;;;;15.23;50.51;101216.34;5018466;28;20512;-77
2022/05/19 06:15:24;;;;;;;9.32;1.88;;;;;;;15.38;49.89;101215.09;5070274;28;20060;-76
2022/05/19 06:17:53;;;;;;;6.55;2.17;;;;;;;15.51;48.05;101203.38;5074678;28;20027;-73
2022/05/19 06:20:19;;;;;;;3.35;1.83;;;;;;;15.83;48.38;101205.31;5059096;28;20063;-75
2022/05/19 06:22:47;;;;;;;2.88;1.40;;;;;;;16.55;48.54;101200.03;5042622;28;20052;-72
2022/05/19 06:25:18;;;;;;;4.65;1.92;;;;;;;18.35;44.25;101196.75;5042619;28;20119;-76
2022/05/19 06:27:45;;;;;;;3.03;1.90;;;;;;;20.35;39.72;101191.13;5078656;28;20104;-74
2022/05/19 06:30:12;;;;;;;5.22;1.60;;;;;;;22.14;34.65;101188.41;5059182;28;20048;-74
2022/05/19 06:32:39;;;;;;;4.15;1.25;;;;;;;23.91;32.47;101197.34;5058820;28;20060;-74
2022/05/19 06:35:07;;;;;;;5.13;1.35;;;;;;;25.71;28.44;101187.72;5059037;28;20036;-72
2022/05/19 06:37:33;;;;;;;9.48;2.05;;;;;;;27.15;24.66;101177.47;5076644;28;20025;-71
2022/05/19 06:39:58;;;;;;;2.25;1.15;;;;;;;28.55;24.23;101186.44;5076380;28;20020;-72
2022/05/19 06:42:25;;;;;;;3.70;1.40;;;;;;;29.76;21.25;101179.59;5058639;28;20402;-71
2022/05/19 06:44:51;;;;;;;3.03;1.20;;;;;;;30.84;21.64;101175.41;5075494;28;20072;-73
2022/05/19 06:47:17;;;;;;;3.63;1.30;;;;;;;31.81;18.96;101186.78;5058904;28;20027;-73
2022/05/19 06:49:45;;;;;;;2.88;0.93;;;;;;;32.63;17.59;101186.16;5058545;28;20032;-74
2022/05/19 06:52:14;;;;;;;5.30;1.25;;;;;;;33.30;16.22;101182.69;5041876;28;20393;-73
2022/05/19 06:54:58;;;;;;;2.45;0.73;;;;;;;34.13;17.12;101180.94;5041725;28;20108;-73
2022/05/19 06:57:31;;;;;;;2.53;1.00;;;;;;;34.68;15.09;101185.75;5058497;28;20029;-74
2022/05/19 06:59:56;;;;;;;0.95;0.70;;;;;;;34.75;14.69;101178.09;5058304;28;20462;-72
2022/05/19 07:02:24;;;;;;;1.27;0.60;;;;;;;35.44;15.52;101180.00;5058172;28;20032;-72
2022/05/19 07:04:50;;;;;;;2.80;0.80;;;;;;;35.75;15.27;101186.66;5076020;28;20091;-74
2022/05/19 07:07:16;;;;;;;1.50;0.70;;;;;;;35.75;14.31;101177.75;5076046;28;20123;-73
2022/05/19 07:09:42;;;;;;;2.10;1.00;;;;;;;36.06;12.96;101176.84;5057999;28;20082;-73
2022/05/19 07:12:11;;;;;;;0.80;0.80;;;;;;;36.04;12.94;101173.72;5058391;28;20035;-73
2022/05/19 07:14:37;;;;;;;0.77;0.57;;;;;;;36.44;13.89;101172.66;5058349;28;20016;-72
2022/05/19 07:17:03;;;;;;;5.28;0.80;;;;;;;36.83;12.71;101176.72;5057607;28;20070;-73
2022/05/19 07:22:21;;;;;;;1.17;0.88;;;;;;;37.77;13.90;101174.31;5076240;28;20031;-73
2022/05/19 07:24:48;;;;;;;1.10;0.80;;;;;;;38.55;13.48;101171.44;5058349;28;20024;-75
2022/05/19 07:27:14;;;;;;;3.05;0.85;;;;;;;38.63;10.70;101163.75;5056775;28;20052;-77
2022/05/19 07:29:41;;;;;;;2.25;0.65;;;;;;;38.63;13.14;101159.97;5041570;28;20077;-75
2022/05/19 07:32:08;;;;;;;0.65;0.50;;;;;;;38.71;12.00;101158.22;5017451;28;20132;-74
2022/05/19 07:34:37;;;;;;;2.30;0.63;;;;;;;38.45;12.81;101160.50;5015850;28;20498;-75
2022/05/19 07:37:03;;;;;;;1.50;0.88;;;;;;;37.86;11.75;101161.47;4998091;28;20483;-74
2022/05/19 07:39:30;;;;;;;1.05;0.75;;;;;;;37.78;12.51;101158.03;5013508;28;20042;-74
2022/05/19 07:41:57;;;;;;;5.22;1.10;;;;;;;37.76;12.67;101157.88;4997171;28;20022;-75
2022/05/19 07:44:29;;;;;;;0.77;0.77;;;;;;;37.26;13.19;101155.59;5013216;28;20033;-74
2022/05/19 07:47:04;;;;;;;1.05;0.93;;;;;;;37.10;11.53;101149.44;4997462;28;20034;-73
2022/05/19 07:49:30;;;;;;;1.10;0.68;;;;;;;37.09;13.67;101156.81;5014906;28;20024;-75
2022/05/19 07:51:57;;;;;;;0.95;0.70;;;;;;;36.86;13.67;101147.91;5013291;28;20026;-75
2022/05/19 07:54:26;;;;;;;2.50;1.10;;;;;;;36.94;13.63;101164.03;5015590;28;20390;-74
2022/05/19 07:56:52;;;;;;;0.80;0.70;;;;;;;36.82;13.95;101162.50;5013289;28;20108;-73
2022/05/19 07:59:19;;;;;;;0.75;0.75;;;;;;;36.67;13.00;101152.69;5012833;28;20079;-75
2022/05/19 08:01:47;;;;;;;0.57;0.55;;;;;;;36.27;12.98;101155.97;5014624;28;20371;-77
2022/05/19 08:04:12;;;;;;;5.28;0.95;;;;;;;36.16;13.83;101150.81;5014116;28;20030;-76
2022/05/19 08:06:38;;;;;;;0.98;0.60;;;;;;;36.31;12.96;101157.03;5014454;28;20076;-74
2022/05/19 08:11:52;;;;;;;1.00;0.80;;;;;;;37.15;12.35;101152.00;5014277;28;20095;-75
2022/05/19 08:17:07;;;;;;;1.40;0.70;;;;;;;37.28;13.82;101153.53;5018533;28;20402;-78
2022/05/19 08:19:33;;;;;;;0.98;0.60;;;;;;;37.53;13.15;101152.81;5014495;28;20167;-74
2022/05/19 08:21:59;;;;;;;1.05;0.90;;;;;;;37.00;13.26;101146.59;4981029;28;20501;-74
2022/05/19 08:24:25;;;;;;;2.25;0.80;;;;;;;36.95;13.57;101153.72;5013542;28;20124;-74
2022/05/19 08:26:52;;;;;;;0.90;0.90;;;;;;;36.44;13.08;101151.88;5014204;28;20081;-74
2022/05/19 08:29:19;;;;;;;2.15;1.00;;;;;;;35.98;12.72;101141.44;5013265;28;20133;-74
2022/05/19 08:31:46;;;;;;;5.28;1.08;;;;;;;36.27;12.98;101138.16;5013329;28;20029;-74
2022/05/19 08:34:14;;;;;;;2.50;0.70;;;;;;;36.01;13.78;101145.34;4997656;28;20471;-74
2022/05/19 08:36:54;;;;;;;1.08;0.98;;;;;;;35.94;12.93;101153.06;5013676;28;20382;-80
2022/05/19 08:39:22;;;;;;;2.25;1.15;;;;;;;35.61;13.02;101141.19;5014912;28;20030;-80
2022/05/19 08:42:03;;;;;;;1.95;1.13;;;;;;;35.79;12.78;101145.41;5012490;28;20383;-79
2022/05/19 08:44:33;;;;;;;1.27;0.82;;;;;;;35.41;13.25;101142.75;5013511;28;20108;-79
2022/05/19 08:47:02;;;;;;;2.90;0.98;;;;;;;35.62;12.39;101136.81;5013642;28;20025;-80
2022/05/19 08:49:46;;;;;;;1.35;0.50;;;;;;;36.02;12.76;101132.06;4997409;28;20109;-80
2022/05/19 08:52:15;;;;;;;1.67;1.10;;;;;;;36.21;13.82;101128.91;5015032;28;20032;-80
2022/05/19 08:54:45;;;;;;;3.13;1.38;;;;;;;36.05;12.31;101128.56;4996947;28;20022;-79
2022/05/19 08:57:55;;;;;;;1.17;0.70;;;;;;;35.91;13.37;101133.56;5013218;28;20113;-79
2022/05/19 09:00:44;;;;;;;0.93;0.90;;;;;;;35.79;12.82;101118.69;5013811;28;20052;-80
2022/05/19 09:03:22;;;;;;;3.15;1.10;;;;;;;35.52;14.67;101113.16;5013083;28;20026;-78
2022/05/19 09:06:10;;;;;;;2.47;0.95;;;;;;;35.30;12.54;101111.66;5015721;28;20030;-79
2022/05/19 09:09:01;;;;;;;1.80;0.70;;;;;;;35.07;14.10;101109.31;5014678;28;20472;-78
2022/05/19 09:11:39;;;;;;;0.88;0.88;;;;;;;34.57;15.08;101105.72;5013791;28;20033;-80
2022/05/19 09:14:27;;;;;;;3.95;1.15;;;;;;;34.60;14.63;101108.19;5014078;28;20033;-78
2022/05/19 09:16:59;;;;;;;3.40;1.15;;;;;;;34.64;14.92;101107.69;4996792;28;20029;-78
2022/05/19 09:20:01;;;;;;;0.82;0.82;;;;;;;34.69;14.73;101106.59;4980776;28;20040;-79
2022/05/19 09:22:33;;;;;;;2.80;0.80;;;;;;;34.35;14.11;101104.09;5010907;28;20075;-79
2022/05/19 09:25:04;;;;;;;1.10;1.00;;;;;;;34.19;13.97;101100.78;5014520;28;20021;-77
2022/05/19 09:27:29;;;;;;;;;;;;;;;33.82;14.50;101109.09;5013270;28;20049;-78
2022/05/19 09:29:57;;;;;;;2.13;0.90;;;;;;;32.98;15.14;101104.09;5012325;28;19918;-77
2022/05/19 09:32:45;;;;;;;0.73;0.63;;;;;;;32.41;15.62;101104.72;4996542;28;20369;-79
2022/05/19 09:35:27;;;;;;;2.05;0.82;;;;;;;32.28;16.14;101093.31;5014277;28;20032;-77
2022/05/19 09:38:04;;;;;;;1.02;0.90;;;;;;;32.04;15.93;101089.16;4996368;28;20060;-78
2022/05/19 09:40:35;;;;;;;1.20;0.73;;;;;;;31.36;15.54;101087.16;4996364;28;20033;-76
2022/05/19 09:43:12;;;;;;;1.75;1.63;;;;;;;31.13;16.97;101088.19;4996154;28;20029;-78
2022/05/19 09:46:14;;;;;;;7.38;1.73;;;;;;;31.06;16.27;101088.28;5012692;28;20424;-78
2022/05/19 09:49:03;;;;;;;2.35;0.60;;;;;;;30.93;16.96;101073.91;4996110;28;20109;-76
2022/05/19 09:51:49;;;;;;;1.55;0.80;;;;;;;30.75;16.49;101082.69;5013172;28;20042;-78
2022/05/19 09:54:16;;;;;;;2.05;0.73;;;;;;;30.58;16.68;101088.56;5012819;28;20034;-77
2022/05/19 09:56:52;;;;;;;1.00;0.70;;;;;;;30.02;16.61;101085.06;5014171;28;20113;-76
2022/05/19 09:59:21;;;;;;;1.13;0.80;;;;;;;29.96;18.04;101078.63;5012506;28;20041;-77
2022/05/19 10:02:09;;;;;;;1.27;0.77;;;;;;;30.08;18.13;101067.19;4996136;28;20038;-77
2022/05/19 10:04:51;;;;;;;2.40;1.38;;;;;;;29.95;18.07;101074.13;5012814;28;20041;-76
2022/05/19 10:07:35;;;;;;;0.70;0.70;;;;;;;29.93;17.56;101067.31;5012667;28;20053;-74
2022/05/19 10:10:23;;;;;;;3.33;1.00;;;;;;;29.71;16.38;101057.22;5012303;28;20065;-74
2022/05/19 10:12:50;;;;;;;1.67;0.98;;;;;;;29.28;16.55;101052.53;4995687;28;20091;-73
2022/05/19 10:15:19;;;;;;;1.27;1.17;;;;;;;29.33;18.60;101047.84;4995552;28;20061;-75
2022/05/19 10:18:11;;;;;;;1.55;0.90;;;;;;;28.93;18.42;101044.84;5013515;28;20037;-74
2022/05/19 10:20:37;;;;;;;;;;;;;;;28.83;20.53;101050.56;5014082;28;20030;-75
2022/05/19 10:23:38;;;;;;;3.10;0.98;;;;;;;28.82;19.01;101042.31;5012143;28;19913;-75
2022/05/19 10:26:20;;;;;;;1.95;0.82;;;;;;;28.67;18.63;101043.13;5012653;28;20163;-73
2022/05/19 10:32:14;;;;;;;14.13;2.10;;;;;;;28.20;18.13;101041.63;5016806;28;20068;-75
2022/05/19 10:35:00;;;;;;;1.55;0.47;;;;;;;28.14;18.13;101034.38;5020733;28;20053;-74
2022/05/19 10:37:59;;;;;;;1.52;0.70;;;;;;;28.12;18.31;101037.13;5014501;28;20041;-76
2022/05/19 10:41:07;;;;;;;2.95;0.63;;;;;;;28.28;19.06;101029.88;5013511;28;20483;-77
2022/05/19 10:43:50;;;;;;;1.88;0.93;;;;;;;28.16;18.43;101025.81;5012117;28;20423;-78
2022/05/19 10:46:42;;;;;;;1.40;0.80;;;;;;;28.04;20.11;101021.66;5013358;28;20108;-77
2022/05/19 10:49:17;;;;;;;1.35;0.93;;;;;;;27.88;18.74;101017.94;5012096;28;20376;-79
2022/05/19 10:52:03;;;;;;;1.75;0.70;;;;;;;27.79;20.51;101012.66;5012036;28;20041;-77
2022/05/19 10:54:58;;;;;;;1.35;0.60;;;;;;;27.70;21.91;101008.16;5013458;28;20029;-78
2022/05/19 10:57:45;;;;;;;1.63;0.90;;;;;;;27.61;22.93;101005.03;4995444;28;20403;-77
2022/05/19 11:00:58;;;;;;;0.68;0.68;;;;;;;27.47;21.33;101005.19;5011713;28;20388;-77
2022/05/19 11:03:36;;;;;;;2.13;1.15;;;;;;;26.93;18.77;101000.50;5012666;28;20045;-77
2022/05/19 11:06:34;;;;;;;1.27;0.73;;;;;;;26.75;20.96;101006.59;5015093;28;20030;-77
2022/05/19 11:09:19;;;;;;;0.57;0.57;;;;;;;26.49;19.25;100987.97;5016871;28;20114;-76
2022/05/19 11:12:06;;;;;;;0.60;0.60;;;;;;;26.42;21.52;100982.84;5017493;28;20026;-77
2022/05/19 11:15:02;;;;;;;6.78;1.10;;;;;;;26.45;19.55;100981.69;5015217;28;20106;-77
2022/05/19 11:17:56;;;;;;;1.90;0.85;;;;;;;26.69;21.75;100970.91;5015219;28;20471;-76
2022/05/19 11:20:53;;;;;;;1.83;0.98;;;;;;;26.38;20.28;100972.88;5015325;28;20061;-76
2022/05/19 11:23:51;;;;;;;1.15;1.05;;;;;;;26.37;20.07;100965.47;5017979;28;20022;-78
2022/05/19 11:26:36;;;;;;;1.42;0.68;;;;;;;26.43;20.79;100961.03;5014793;28;20030;-74
2022/05/19 11:29:34;;;;;;;1.38;1.27;;;;;;;26.13;22.23;100970.34;5015307;28;20046;-73
2022/05/19 11:32:44;;;;;;;1.75;0.63;;;;;;;26.18;20.69;100959.88;5014450;28;20375;-75
2022/05/19 11:35:17;;;;;;;2.33;1.10;;;;;;;26.10;20.27;100950.28;4994400;28;20452;-74
2022/05/19 11:38:03;;;;;;;0.80;0.77;;;;;;;26.10;20.72;100948.13;4994474;28;20035;-73
2022/05/19 11:40:55;;;;;;;2.35;0.80;;;;;;;26.27;21.50;100947.69;4994230;28;20478;-74
2022/05/19 11:43:41;;;;;;;0.90;0.60;;;;;;;26.12;22.54;100951.25;4979030;28;20367;-74
2022/05/19 11:46:10;;;;;;;1.85;0.90;;;;;;;26.17;21.07;100940.75;5015849;28;20537;-74
2022/05/19 11:55:17;;;;;;;2.15;1.10;;;;;;;26.16;22.07;100925.38;5015740;28;20029;-73
2022/05/19 11:57:59;;;;;;;1.43;0.53;;;;;;;26.10;19.87;100926.91;5016191;28;20056;-73
2022/05/19 12:00:28;;;;;;;1.10;0.73;;;;;;;26.12;19.70;100927.09;4998422;28;20030;-73
2022/05/19 12:03:22;;;;;;;1.48;0.73;;;;;;;26.13;20.48;100917.78;5014261;28;20072;-74
2022/05/19 12:05:58;;;;;;;0.82;0.68;;;;;;;26.22;20.90;100916.50;5015777;28;20383;-75
2022/05/19 12:08:41;;;;;;;1.17;0.90;;;;;;;26.43;18.71;100910.56;5013958;28;20162;-75
2022/05/19 12:11:31;;;;;;;2.20;0.73;;;;;;;26.27;20.27;100918.47;4997782;28;20474;-77
2022/05/19 12:14:25;;;;;;;2.50;0.75;;;;;;;26.18;20.01;100904.38;5014132;28;20037;-75
2022/05/19 12:16:59;;;;;;;1.17;0.90;;;;;;;26.27;20.09;100908.91;5026194;28;20022;-77